METAR Data
IDs: Format: Raw Decoded Include TAF

Data at: 2202 UTC 30 Jun 2022

METAR for:KDEH (Decorah Muni, IA, US)
Text:KDEH 302155Z AUTO VRB05G11KT 10SM CLR 28/18 A2984 RMK AO2
Temperature: 28.0°C ( 82°F)
Dewpoint: 18.0°C ( 64°F) [RH = 55%]
Pressure (altimeter):29.84 inches Hg (1010.6 mb)
Winds:variable direction winds at 6 MPH (5 knots; 2.6 m/s) gusting to 13 MPH (11 knots; 5.7 m/s)
Visibility:10 or more sm (16+ km)
Ceiling:at least 12,000 feet AGL
Clouds:sky clear below 12,000 feet AGL
QC Flag:automated observation with no human augmentation

TAF for:KDEH (Decorah Muni, IA, US)
Text:No data found